Time;durP1;ratioP1;P1;durP2;ratioP2;P2;SDS_P1;SDS_P2;PMS_P1;PMS_P2;Temp;Humidity;BMP_temperature;BMP_pressure;BME280_temperature;BME280_humidity;BME280_pressure;Samples;Min_cycle;Max_cycle;Signal;HPM_P1;HPM_P2
2022/01/05 00:00:10;;;;;;;17.90;7.80;;;;;;;3.12;82.79;100010.28;4994879;28;20030;-56
2022/01/05 00:02:36;;;;;;;18.77;8.20;;;;;;;3.00;82.69;100002.38;4995329;28;20022;-56
2022/01/05 00:05:03;;;;;;;19.63;7.65;;;;;;;2.97;83.77;100017.44;4995329;28;20048;-57
2022/01/05 00:07:28;;;;;;;17.67;7.90;;;;;;;2.90;83.38;100010.59;4994839;28;20093;-56
2022/01/05 00:09:53;;;;;;;18.38;8.13;;;;;;;2.80;83.84;100005.97;4993450;28;20473;-56
2022/01/05 00:12:19;;;;;;;16.00;7.97;;;;;;;2.87;82.96;100011.97;4994522;28;20057;-55
2022/01/05 00:14:44;;;;;;;18.00;8.32;;;;;;;2.85;81.96;100011.44;4994637;28;20158;-56
2022/01/05 00:17:09;;;;;;;17.48;7.55;;;;;;;2.86;82.65;100018.53;4994895;28;20033;-56
2022/01/05 00:19:34;;;;;;;18.80;8.20;;;;;;;2.81;82.84;100018.53;4994033;28;20030;-56
2022/01/05 00:22:01;;;;;;;18.48;8.10;;;;;;;2.71;82.43;100008.44;4995033;28;20061;-56
2022/01/05 00:24:26;;;;;;;21.20;8.38;;;;;;;2.74;81.47;100007.91;4995053;28;20037;-57
2022/01/05 00:26:52;;;;;;;16.60;7.50;;;;;;;2.67;82.56;100012.81;4994548;28;20089;-55
2022/01/05 00:29:17;;;;;;;19.67;8.32;;;;;;;2.64;82.03;100014.19;4994372;28;20089;-55
2022/01/05 00:31:42;;;;;;;20.35;8.40;;;;;;;2.62;81.29;100012.81;4994753;28;20482;-56
2022/01/05 00:34:08;;;;;;;15.32;8.05;;;;;;;2.54;81.77;100002.44;4994157;28;20066;-56
2022/01/05 00:36:33;;;;;;;20.63;8.43;;;;;;;2.55;82.71;100012.25;4992584;28;20181;-55
2022/01/05 00:38:58;;;;;;;18.58;8.50;;;;;;;2.54;82.33;100018.81;4993798;28;20042;-55
2022/01/05 00:41:23;;;;;;;16.75;7.80;;;;;;;2.52;81.80;100015.53;4994275;28;20018;-56
2022/01/05 00:43:49;;;;;;;19.00;7.78;;;;;;;2.50;81.96;100024.00;4993843;28;20034;-57
2022/01/05 00:46:14;;;;;;;21.50;8.77;;;;;;;2.51;81.28;100022.91;4993813;28;20070;-55
2022/01/05 00:48:39;;;;;;;20.77;9.15;;;;;;;2.49;80.86;100027.81;4994604;28;20423;-55
2022/01/05 00:51:06;;;;;;;18.77;9.77;;;;;;;2.46;81.13;100031.94;4994053;28;20101;-57
2022/01/05 00:53:33;;;;;;;21.98;8.32;;;;;;;2.45;81.12;100038.47;4993991;28;20046;-56
2022/01/05 00:55:58;;;;;;;22.80;8.88;;;;;;;2.42;80.17;100039.00;4993520;28;20109;-56
2022/01/05 00:58:23;;;;;;;21.40;8.30;;;;;;;2.45;80.70;100051.31;4993483;28;20105;-56
2022/01/05 01:00:49;;;;;;;17.95;7.78;;;;;;;2.41;80.14;100045.56;4993639;28;20038;-55
2022/01/05 01:03:14;;;;;;;20.85;8.93;;;;;;;2.38;80.44;100046.13;4993431;28;20113;-55
2022/01/05 01:05:40;;;;;;;18.30;8.70;;;;;;;2.36;79.54;100052.94;4994237;28;20485;-55
2022/01/05 01:08:05;;;;;;;22.83;9.07;;;;;;;2.34;80.86;100045.00;4994303;28;20069;-55
2022/01/05 01:10:31;;;;;;;15.90;8.10;;;;;;;2.30;81.03;100046.66;4992668;28;20058;-55
2022/01/05 01:12:56;;;;;;;20.80;8.65;;;;;;;2.30;80.42;100052.13;4993237;28;20026;-55
2022/01/05 01:15:21;;;;;;;20.73;8.10;;;;;;;2.29;80.57;100051.28;4993243;28;20030;-56
2022/01/05 01:17:47;;;;;;;17.83;8.15;;;;;;;2.24;81.11;100056.75;4993442;28;20269;-56
2022/01/05 01:20:12;;;;;;;18.75;7.93;;;;;;;2.22;81.52;100053.44;4993946;28;20327;-56
2022/01/05 01:22:37;;;;;;;19.10;7.85;;;;;;;2.16;81.72;100051.81;4992248;28;20108;-55
2022/01/05 01:25:05;;;;;;;19.80;8.98;;;;;;;2.10;81.48;100061.06;4993856;28;20066;-55
2022/01/05 01:27:30;;;;;;;18.92;8.30;;;;;;;2.20;80.03;100055.63;4993292;28;20030;-55
2022/01/05 01:29:56;;;;;;;19.15;8.85;;;;;;;2.12;79.65;100050.69;4993528;28;20077;-55
2022/01/05 01:32:21;;;;;;;18.83;8.48;;;;;;;2.03;80.25;100055.88;4993581;28;20533;-56
2022/01/05 01:34:46;;;;;;;19.80;8.85;;;;;;;2.00;80.34;100057.22;4993585;28;20037;-56
2022/01/05 01:37:12;;;;;;;21.80;9.18;;;;;;;1.95;80.75;100057.22;4993298;28;20033;-56
2022/01/05 01:39:37;;;;;;;19.73;8.52;;;;;;;1.94;81.08;100060.19;4994272;28;20037;-55
2022/01/05 01:42:03;;;;;;;21.55;8.60;;;;;;;1.93;81.10;100055.84;4993292;28;20022;-56
2022/01/05 01:44:28;;;;;;;19.60;8.32;;;;;;;1.90;80.92;100056.38;4993220;28;20084;-56
2022/01/05 01:46:53;;;;;;;20.63;9.07;;;;;;;1.91;80.46;100058.81;4992482;28;20022;-54
2022/01/05 01:49:19;;;;;;;20.30;8.68;;;;;;;1.90;80.45;100061.81;4992989;28;20030;-54
2022/01/05 01:51:44;;;;;;;16.95;8.35;;;;;;;1.86;80.23;100067.81;4993144;28;20034;-55
2022/01/05 01:54:10;;;;;;;18.75;8.98;;;;;;;1.90;80.12;100073.53;4993137;28;20050;-56
2022/01/05 01:56:36;;;;;;;18.10;7.82;;;;;;;1.86;80.42;100069.72;4993145;28;20027;-56
2022/01/05 01:59:02;;;;;;;17.10;8.20;;;;;;;1.88;80.21;100070.28;4993650;28;20026;-56
2022/01/05 02:01:28;;;;;;;18.40;8.32;;;;;;;1.78;80.00;100067.50;4992589;28;20030;-55
2022/01/05 02:03:53;;;;;;;17.92;8.55;;;;;;;1.72;81.07;100063.94;4992753;28;20022;-55
2022/01/05 02:06:18;;;;;;;19.17;8.88;;;;;;;1.74;80.73;100064.50;4993342;28;20081;-55
2022/01/05 02:08:44;;;;;;;18.58;8.40;;;;;;;1.69;81.52;100059.84;4993272;28;20034;-57
2022/01/05 02:11:11;;;;;;;19.73;8.70;;;;;;;1.63;81.95;100069.06;4993033;28;20054;-55
2022/01/05 02:13:37;;;;;;;16.35;8.23;;;;;;;1.67;81.43;100058.44;4993832;28;20035;-55
2022/01/05 02:16:03;;;;;;;19.20;8.32;;;;;;;1.58;81.63;100055.44;4992941;28;20052;-55
2022/01/05 02:21:05;;;;;;;19.50;8.30;;;;;;;1.57;81.07;100061.97;4993511;28;20026;-56
2022/01/05 02:23:31;;;;;;;18.08;8.52;;;;;;;1.54;81.11;100060.59;4993117;28;20042;-54
2022/01/05 02:25:57;;;;;;;16.95;8.10;;;;;;;1.53;80.80;100063.56;4993222;28;20034;-55
2022/01/05 02:28:22;;;;;;;19.73;8.82;;;;;;;1.47;81.62;100062.72;4993423;28;20045;-54
2022/01/05 02:30:52;;;;;;;18.63;8.30;;;;;;;1.48;80.94;100072.53;4992803;28;20027;-54
2022/01/05 02:33:18;;;;;;;17.15;7.78;;;;;;;1.43;81.61;100069.78;4992724;28;20032;-55
2022/01/05 02:35:43;;;;;;;18.98;7.90;;;;;;;1.42;81.71;100076.31;4996271;28;20030;-53
2022/01/05 02:38:08;;;;;;;16.98;7.88;;;;;;;1.42;82.03;100081.78;4996229;28;20041;-56
2022/01/05 02:40:33;;;;;;;20.77;8.10;;;;;;;1.32;81.50;100074.38;4996863;28;20029;-56
2022/01/05 02:42:59;;;;;;;17.70;8.32;;;;;;;1.31;82.13;100078.19;4996686;28;20030;-54
2022/01/05 02:45:24;;;;;;;17.05;7.85;;;;;;;1.31;81.69;100082.78;4996222;28;20096;-55
2022/01/05 02:47:50;;;;;;;18.55;8.48;;;;;;;1.33;81.27;100089.63;4995660;28;20038;-57
2022/01/05 02:50:16;;;;;;;18.85;9.27;;;;;;;1.23;81.11;100084.09;4995613;28;20026;-55
2022/01/05 02:52:42;;;;;;;20.13;8.30;;;;;;;1.28;81.27;100091.50;4996040;28;20481;-55
2022/01/05 02:55:09;;;;;;;17.60;8.57;;;;;;;1.27;80.60;100090.69;4996340;28;20038;-55
2022/01/05 02:57:35;;;;;;;18.92;8.02;;;;;;;1.23;82.00;100095.84;4996288;28;20147;-57
2022/01/05 03:00:00;;;;;;;16.77;8.40;;;;;;;1.20;81.86;100101.00;4995928;28;20026;-56
2022/01/05 03:02:26;;;;;;;18.55;8.43;;;;;;;1.19;81.71;100099.34;4995863;28;20448;-55
2022/01/05 03:04:51;;;;;;;18.17;8.27;;;;;;;1.13;82.27;100097.69;4995453;28;20108;-55
2022/01/05 03:07:17;;;;;;;21.02;8.80;;;;;;;1.14;82.23;100107.47;4995475;28;20453;-55
2022/01/05 03:09:45;;;;;;;18.60;7.90;;;;;;;1.13;81.33;100105.84;4995071;28;20023;-55
2022/01/05 03:12:11;;;;;;;16.52;7.65;;;;;;;1.08;81.92;100107.44;4995370;28;20105;-56
2022/01/05 03:14:37;;;;;;;17.38;7.85;;;;;;;1.08;81.70;100112.88;4994926;28;20034;-55
2022/01/05 03:17:03;;;;;;;16.35;7.75;;;;;;;1.10;81.18;100120.78;4993436;28;20379;-55
2022/01/05 03:19:28;;;;;;;18.73;8.40;;;;;;;1.07;81.07;100130.31;4995263;28;20022;-55
2022/01/05 03:21:54;;;;;;;21.50;8.48;;;;;;;1.05;81.07;100124.31;4995391;28;20030;-57
2022/01/05 03:24:19;;;;;;;17.40;9.02;;;;;;;1.02;81.12;100135.75;4994168;28;20118;-55
2022/01/05 03:26:44;;;;;;;17.92;8.88;;;;;;;1.03;81.90;100126.50;4995659;28;20070;-56
2022/01/05 03:29:10;;;;;;;19.98;8.25;;;;;;;1.01;81.89;100133.25;4995874;28;20398;-54
2022/01/05 03:31:35;;;;;;;16.98;8.88;;;;;;;1.02;82.04;100135.75;4996019;28;20026;-57
2022/01/05 03:34:01;;;;;;;16.67;7.90;;;;;;;0.97;81.33;100140.31;4994991;28;20134;-56
2022/01/05 03:36:26;;;;;;;21.70;8.70;;;;;;;0.99;81.26;100138.97;4995762;28;20037;-55
2022/01/05 03:38:51;;;;;;;21.60;8.00;;;;;;;0.99;81.16;100138.16;4995941;28;20037;-54
2022/01/05 03:41:17;;;;;;;17.08;8.30;;;;;;;1.03;80.91;100140.09;4995976;28;20401;-54
2022/01/05 03:43:42;;;;;;;16.17;8.10;;;;;;;1.09;81.01;100144.50;4995268;28;20475;-54
2022/01/05 03:46:07;;;;;;;13.13;7.60;;;;;;;1.15;79.82;100148.09;4995708;28;20026;-54
2022/01/05 03:48:33;;;;;;;19.42;9.40;;;;;;;1.19;80.00;100146.47;4995083;28;20027;-54
2022/01/05 03:50:58;;;;;;;20.10;8.55;;;;;;;1.20;80.87;100150.84;4993956;28;20034;-54
2022/01/05 03:53:23;;;;;;;21.80;8.70;;;;;;;1.21;79.54;100151.69;4995137;28;20355;-56
2022/01/05 03:55:49;;;;;;;19.95;8.65;;;;;;;1.27;80.24;100152.56;4993941;28;20023;-55
2022/01/05 03:58:15;;;;;;;18.73;8.48;;;;;;;1.21;80.33;100147.03;4994969;28;20061;-55
2022/01/05 04:00:47;;;;;;;21.02;8.73;;;;;;;1.26;79.12;100151.72;4995198;28;20449;-56
2022/01/05 04:03:13;;;;;;;18.80;8.35;;;;;;;1.27;79.59;100152.56;4994988;28;20040;-55
2022/01/05 04:05:38;;;;;;;16.00;7.82;;;;;;;1.30;78.76;100150.13;4995006;28;20023;-56
2022/01/05 04:08:04;;;;;;;18.83;8.93;;;;;;;1.24;79.64;100159.31;4994951;28;20023;-55
2022/01/05 04:10:29;;;;;;;21.10;9.40;;;;;;;1.21;80.01;100160.66;4993698;28;20030;-54
2022/01/05 04:12:55;;;;;;;17.80;8.50;;;;;;;1.27;79.48;100168.91;4994260;28;20081;-55
2022/01/05 04:15:20;;;;;;;20.83;9.52;;;;;;;1.24;79.44;100159.31;4994869;28;20026;-55
2022/01/05 04:17:46;;;;;;;17.55;8.35;;;;;;;1.16;79.52;100162.53;4994198;28;20026;-55
2022/01/05 04:20:13;;;;;;;18.35;7.90;;;;;;;1.11;80.42;100167.94;4994355;28;20558;-55
2022/01/05 04:22:39;;;;;;;16.80;8.20;;;;;;;1.11;80.55;100168.75;4995074;28;20033;-55
2022/01/05 04:25:05;;;;;;;20.77;8.13;;;;;;;1.03;80.77;100172.78;4994544;28;20385;-55
2022/01/05 04:27:30;;;;;;;20.15;9.02;;;;;;;1.07;80.19;100168.44;4993941;28;20031;-54
2022/01/05 04:29:55;;;;;;;17.85;8.18;;;;;;;1.04;81.07;100170.88;4994714;28;20049;-54
2022/01/05 04:32:21;;;;;;;17.30;8.20;;;;;;;1.05;79.96;100173.34;4993996;28;20025;-57
2022/01/05 04:34:46;;;;;;;18.70;9.23;;;;;;;1.02;80.96;100176.59;4993660;28;20116;-54
2022/01/05 04:37:11;;;;;;;19.60;8.32;;;;;;;1.01;81.15;100174.09;4994217;28;20030;-55
2022/01/05 04:39:37;;;;;;;19.58;8.43;;;;;;;0.97;80.72;100171.09;4994413;28;20478;-55
2022/01/05 04:42:03;;;;;;;17.98;7.93;;;;;;;0.95;81.14;100178.69;4994181;28;20034;-55
2022/01/05 04:44:28;;;;;;;15.82;8.35;;;;;;;0.92;81.67;100182.75;4994499;28;20026;-56
2022/01/05 04:46:54;;;;;;;20.02;8.38;;;;;;;0.95;81.45;100186.84;4994319;28;20133;-55
2022/01/05 04:49:19;;;;;;;17.88;8.68;;;;;;;1.00;81.03;100186.91;4993939;28;20041;-55
2022/01/05 04:51:44;;;;;;;18.25;9.60;;;;;;;1.06;81.60;100185.06;4993433;28;20027;-54
2022/01/05 04:54:10;;;;;;;18.92;9.23;;;;;;;1.11;81.38;100189.75;4993511;28;20046;-55
2022/01/05 04:56:35;;;;;;;17.45;8.70;;;;;;;1.19;80.53;100187.34;4993643;28;20027;-55
2022/01/05 04:59:00;;;;;;;19.08;8.70;;;;;;;1.22;80.73;100195.00;4994182;28;20398;-57
2022/01/05 05:01:25;;;;;;;17.58;7.78;;;;;;;1.32;80.91;100186.13;4994046;28;20040;-55
2022/01/05 05:03:51;;;;;;;17.42;8.15;;;;;;;1.32;80.68;100186.13;4994105;28;20022;-57
2022/01/05 05:06:16;;;;;;;20.05;9.93;;;;;;;1.37;81.06;100194.31;4994146;28;20031;-55
2022/01/05 05:08:42;;;;;;;19.83;9.55;;;;;;;1.40;80.36;100196.53;4993913;28;20105;-55
2022/01/05 05:11:07;;;;;;;21.58;9.75;;;;;;;1.43;79.94;100194.34;4994127;28;20493;-57
2022/01/05 05:13:32;;;;;;;22.85;8.85;;;;;;;1.48;80.15;100208.84;4993401;28;20030;-54
2022/01/05 05:15:58;;;;;;;18.25;9.43;;;;;;;1.54;80.42;100205.09;4993478;28;20033;-55
2022/01/05 05:18:23;;;;;;;20.33;9.18;;;;;;;1.53;80.27;100189.81;4993656;28;20031;-55
2022/01/05 05:20:48;;;;;;;20.33;9.25;;;;;;;1.64;79.65;100198.88;4993816;28;20022;-55
2022/01/05 05:23:14;;;;;;;16.67;9.10;;;;;;;1.69;79.54;100201.66;4993039;28;20029;-55
2022/01/05 05:25:39;;;;;;;22.65;8.50;;;;;;;1.64;80.55;100195.34;4993004;28;20520;-55
2022/01/05 05:28:04;;;;;;;21.23;8.88;;;;;;;1.62;79.81;100184.66;4993092;28;20033;-55
2022/01/05 05:30:29;;;;;;;20.17;9.10;;;;;;;1.70;79.88;100181.44;4993339;28;20110;-55
2022/01/05 05:32:57;;;;;;;21.20;8.88;;;;;;;1.70;81.54;100186.91;4993718;28;20470;-55
2022/01/05 05:35:26;;;;;;;19.05;8.55;;;;;;;1.75;80.73;100179.84;4993391;28;20034;-56
2022/01/05 05:37:52;;;;;;;19.02;8.98;;;;;;;1.76;80.98;100192.41;4993891;28;20022;-56
2022/01/05 05:40:17;;;;;;;19.27;8.45;;;;;;;1.80;81.05;100180.69;4992072;28;20034;-55
2022/01/05 05:42:42;;;;;;;15.25;8.48;;;;;;;1.85;80.39;100188.09;4993552;28;20061;-56
2022/01/05 05:45:08;;;;;;;21.20;9.10;;;;;;;1.81;81.03;100186.97;4993448;28;20037;-55
2022/01/05 05:47:34;;;;;;;19.17;8.30;;;;;;;1.86;80.73;100189.75;4993294;28;20099;-56
2022/01/05 05:49:59;;;;;;;18.42;9.15;;;;;;;1.81;81.17;100195.97;4993369;28;20022;-56
2022/01/05 05:52:24;;;;;;;18.13;8.27;;;;;;;1.83;81.27;100193.81;4993214;28;20046;-54
2022/01/05 05:54:51;;;;;;;20.88;8.60;;;;;;;1.82;81.15;100189.44;4993328;28;20058;-55
2022/01/05 05:57:16;;;;;;;16.50;8.70;;;;;;;1.87;80.00;100192.19;4992905;28;20023;-54
2022/01/05 05:59:41;;;;;;;19.73;9.18;;;;;;;1.86;81.01;100192.47;4993119;28;20026;-56
2022/01/05 06:02:06;;;;;;;23.10;8.93;;;;;;;1.91;80.63;100199.84;4992771;28;20033;-54
2022/01/05 06:04:32;;;;;;;22.23;8.32;;;;;;;1.93;80.88;100206.69;4993282;28;20039;-55
2022/01/05 06:06:57;;;;;;;21.33;9.00;;;;;;;1.90;81.18;100200.94;4992486;28;20458;-55
2022/01/05 06:09:22;;;;;;;22.05;8.60;;;;;;;1.92;80.93;100201.50;4995646;28;20034;-57
2022/01/05 06:11:47;;;;;;;22.38;9.65;;;;;;;1.90;82.20;100199.00;4996654;28;20030;-55
2022/01/05 06:14:13;;;;;;;21.55;8.98;;;;;;;1.86;82.10;100204.19;4997133;28;20032;-56
2022/01/05 06:16:38;;;;;;;18.17;8.63;;;;;;;1.82;82.24;100202.25;4996767;28;20393;-55
2022/01/05 06:19:03;;;;;;;18.98;8.55;;;;;;;1.75;82.27;100205.19;4996826;28;20026;-55
2022/01/05 06:21:28;;;;;;;20.23;9.13;;;;;;;1.71;82.54;100213.09;4996524;28;20061;-55
2022/01/05 06:23:54;;;;;;;19.45;8.48;;;;;;;1.78;83.26;100210.13;4996552;28;20081;-55
2022/01/05 06:26:21;;;;;;;21.45;9.15;;;;;;;1.79;83.03;100205.53;4996414;28;20415;-56
2022/01/05 06:28:46;;;;;;;20.80;9.43;;;;;;;1.84;82.93;100217.25;4996681;28;20124;-56
2022/01/05 06:31:12;;;;;;;18.40;8.90;;;;;;;1.89;82.96;100221.91;4996027;28;20474;-56
2022/01/05 06:33:37;;;;;;;19.67;9.40;;;;;;;1.91;82.56;100229.88;4996559;28;20042;-55
2022/01/05 06:36:02;;;;;;;21.17;8.85;;;;;;;1.99;82.40;100230.16;4996753;28;20030;-55
2022/01/05 06:38:28;;;;;;;20.77;8.25;;;;;;;1.98;83.36;100223.09;4996391;28;20026;-55
2022/01/05 06:40:53;;;;;;;19.58;8.75;;;;;;;1.98;83.46;100225.00;4996717;28;20429;-56
2022/01/05 06:43:18;;;;;;;22.02;8.18;;;;;;;1.98;83.49;100222.25;4996457;28;20034;-56
2022/01/05 06:45:43;;;;;;;30.33;12.10;;;;;;;1.99;82.65;100234.81;4996448;28;20092;-56
2022/01/05 06:48:09;;;;;;;23.15;9.35;;;;;;;2.02;82.37;100231.56;4996453;28;20025;-56
2022/01/05 06:50:34;;;;;;;21.60;9.25;;;;;;;1.99;83.89;100237.53;4996454;28;20600;-56
2022/01/05 06:52:59;;;;;;;22.85;8.90;;;;;;;2.01;83.19;100233.47;4996270;28;20029;-56
2022/01/05 06:55:25;;;;;;;18.55;9.45;;;;;;;2.05;83.13;100252.03;4996382;28;20109;-56
2022/01/05 06:57:51;;;;;;;20.45;9.73;;;;;;;2.05;82.80;100246.59;4995593;28;20109;-55
2022/01/05 07:00:17;;;;;;;23.60;9.30;;;;;;;2.03;83.10;100258.59;4996023;28;20022;-57
2022/01/05 07:02:43;;;;;;;16.92;8.13;;;;;;;2.10;83.16;100260.25;4995521;28;20474;-55
2022/01/05 07:05:09;;;;;;;20.98;8.10;;;;;;;2.12;83.01;100260.81;4996262;28;20030;-56
2022/01/05 07:07:35;;;;;;;20.63;8.60;;;;;;;2.12;82.61;100269.00;4996393;28;20486;-55
2022/01/05 07:10:00;;;;;;;18.90;8.25;;;;;;;2.15;82.51;100268.47;4995889;28;20379;-55
2022/01/05 07:12:25;;;;;;;18.90;8.13;;;;;;;2.19;83.02;100269.56;4995798;28;20085;-54
2022/01/05 07:14:51;;;;;;;18.67;8.02;;;;;;;2.18;83.38;100270.66;4995107;28;20474;-55
2022/01/05 07:17:16;;;;;;;18.58;7.65;;;;;;;2.23;82.71;100264.41;4995744;28;20027;-55
2022/01/05 07:19:41;;;;;;;24.23;8.43;;;;;;;2.24;82.86;100268.78;4994813;28;20026;-55
2022/01/05 07:22:07;;;;;;;22.30;8.50;;;;;;;2.23;82.66;100270.72;4995563;28;20454;-55
2022/01/05 07:24:32;;;;;;;20.88;8.90;;;;;;;2.24;82.90;100282.44;4995913;28;20105;-54
2022/01/05 07:26:57;;;;;;;22.90;8.45;;;;;;;2.26;83.16;100285.72;4995742;28;20110;-55
2022/01/05 07:29:22;;;;;;;21.38;9.20;;;;;;;2.24;83.12;100280.53;4996099;28;20110;-55
2022/01/05 07:31:48;;;;;;;20.48;8.95;;;;;;;2.26;82.72;100283.84;4996004;28;20470;-56
2022/01/05 07:34:14;;;;;;;20.92;9.18;;;;;;;2.26;84.13;100281.09;4995145;28;20385;-55
2022/01/05 07:36:40;;;;;;;18.55;9.68;;;;;;;2.30;83.37;100290.38;4995859;28;20029;-55
2022/01/05 07:39:06;;;;;;;21.75;9.20;;;;;;;2.37;82.79;100289.31;4995647;28;20053;-55
2022/01/05 07:41:33;;;;;;;23.30;9.18;;;;;;;2.37;83.49;100284.69;4995738;28;20101;-55
2022/01/05 07:43:58;;;;;;;20.48;9.85;;;;;;;2.40;83.07;100283.34;4995569;28;20441;-55
2022/01/05 07:46:23;;;;;;;17.63;8.60;;;;;;;2.41;83.12;100290.44;4995449;28;20107;-55
2022/01/05 07:48:48;;;;;;;20.85;9.07;;;;;;;2.41;83.41;100285.78;4995165;28;20022;-55
2022/01/05 07:51:14;;;;;;;18.10;8.35;;;;;;;2.49;83.56;100282.59;4995419;28;20478;-56
2022/01/05 07:53:39;;;;;;;18.67;8.48;;;;;;;2.53;82.79;100303.88;4994310;28;20050;-55
2022/01/05 07:56:05;;;;;;;19.55;8.18;;;;;;;2.60;82.86;100304.44;4995440;28;20069;-55
2022/01/05 07:58:30;;;;;;;19.50;8.30;;;;;;;2.68;81.76;100314.06;4995255;28;20030;-57
2022/01/05 08:00:56;;;;;;;21.55;8.23;;;;;;;2.78;81.45;100309.47;4995178;28;20399;-56
2022/01/05 08:03:21;;;;;;;15.40;8.15;;;;;;;2.82;82.13;100312.50;4995043;28;20030;-60
2022/01/05 08:05:46;;;;;;;19.65;7.93;;;;;;;2.90;81.44;100324.78;4994837;28;20044;-58
2022/01/05 08:08:12;;;;;;;24.25;11.02;;;;;;;3.01;80.59;100321.00;4995111;28;20050;-56
2022/01/05 08:10:37;;;;;;;19.25;8.18;;;;;;;2.98;80.60;100335.22;4995175;28;20030;-56
2022/01/05 08:13:02;;;;;;;21.60;9.00;;;;;;;3.07;80.48;100335.53;4994893;28;20035;-56
2022/01/05 08:15:28;;;;;;;24.33;9.20;;;;;;;3.10;79.84;100329.53;4994857;28;20087;-57
2022/01/05 08:17:53;;;;;;;18.73;7.70;;;;;;;3.09;80.58;100325.97;4994592;28;20034;-55
2022/01/05 08:20:18;;;;;;;22.83;9.60;;;;;;;3.16;80.96;100303.84;4994928;28;20045;-55
2022/01/05 08:22:45;;;;;;;19.67;8.95;;;;;;;3.24;80.36;100300.56;4994710;28;20022;-55
2022/01/05 08:25:13;;;;;;;20.33;8.38;;;;;;;3.27;79.05;100310.13;4996499;28;20069;-57
2022/01/05 08:27:46;;;;;;;23.05;9.27;;;;;;;3.22;80.25;100312.88;4993268;28;20041;-56
2022/01/05 08:30:25;;;;;;;17.57;9.20;;;;;;;3.22;79.70;100315.63;4994749;28;20112;-56
2022/01/05 08:32:52;;;;;;;19.08;8.30;;;;;;;3.23;79.43;100322.72;4993707;28;20369;-56
2022/01/05 08:35:20;;;;;;;19.88;8.27;;;;;;;3.19;79.62;100329.81;4994596;28;20030;-56
2022/01/05 08:37:47;;;;;;;18.92;8.25;;;;;;;3.17;80.09;100330.09;4994196;28;20023;-55
2022/01/05 08:40:16;;;;;;;17.02;7.72;;;;;;;3.23;79.60;100325.47;4994169;28;20033;-56
2022/01/05 08:42:42;;;;;;;20.50;9.43;;;;;;;3.17;79.28;100330.09;4994204;28;20030;-58
2022/01/05 08:45:08;;;;;;;21.88;9.52;;;;;;;3.06;79.59;100329.25;4994323;28;20397;-56
2022/01/05 08:47:34;;;;;;;18.83;8.10;;;;;;;3.09;79.92;100333.34;4994142;28;20081;-56
2022/01/05 08:49:59;;;;;;;18.58;8.32;;;;;;;3.03;80.16;100327.03;4994107;28;20022;-56
2022/01/05 08:52:25;;;;;;;20.83;8.60;;;;;;;3.11;80.09;100342.09;4994195;28;20053;-58
2022/01/05 08:54:50;;;;;;;22.17;8.80;;;;;;;3.22;80.16;100342.94;4993905;28;20120;-56
2022/01/05 08:57:16;;;;;;;20.23;8.60;;;;;;;3.31;80.23;100333.13;4992320;28;20026;-56
2022/01/05 08:59:43;;;;;;;21.98;8.10;;;;;;;3.39;79.37;100346.28;4993907;28;20108;-58
2022/01/05 09:02:08;;;;;;;23.67;9.40;;;;;;;3.48;79.65;100362.13;4994118;28;20030;-58
2022/01/05 09:04:34;;;;;;;25.95;9.10;;;;;;;3.52;79.46;100353.13;4993852;28;20038;-56
2022/01/05 09:07:00;;;;;;;21.58;8.68;;;;;;;3.53;79.74;100343.03;4992376;28;20046;-56
2022/01/05 09:09:26;;;;;;;19.52;7.82;;;;;;;3.54;79.09;100358.34;4992850;28;20053;-56
2022/01/05 09:11:51;;;;;;;21.63;8.40;;;;;;;3.54;79.58;100361.88;4993812;28;20042;-57
2022/01/05 09:14:17;;;;;;;23.27;8.70;;;;;;;3.55;79.95;100343.56;4994020;28;20026;-58
2022/01/05 09:16:43;;;;;;;20.33;8.32;;;;;;;3.63;79.94;100362.19;4993617;28;20034;-56
2022/01/05 09:19:08;;;;;;;19.60;8.13;;;;;;;3.65;80.14;100357.25;4993840;28;20037;-56
2022/01/05 09:21:33;;;;;;;23.60;8.98;;;;;;;3.59;81.37;100353.69;4994006;28;20066;-58
2022/01/05 09:23:59;;;;;;;24.67;8.48;;;;;;;3.71;80.77;100369.00;4994090;28;20022;-57
2022/01/05 09:26:24;;;;;;;21.48;7.47;;;;;;;3.69;81.24;100366.56;4993969;28;20500;-56
2022/01/05 09:28:49;;;;;;;21.33;8.48;;;;;;;3.70;81.63;100370.94;4993742;28;20138;-56
2022/01/05 09:31:15;;;;;;;22.83;8.65;;;;;;;3.70;82.58;100384.63;4993935;28;20391;-57
2022/01/05 09:33:41;;;;;;;18.75;8.68;;;;;;;3.71;81.68;100391.75;4993277;28;20469;-56
2022/01/05 09:36:14;;;;;;;22.30;8.45;;;;;;;3.81;80.69;100384.63;4993618;28;20034;-56
2022/01/05 09:44:05;;;;;;;22.10;8.48;;;;;;;3.71;81.17;100377.22;4993945;28;20049;-57
2022/01/05 09:46:38;;;;;;;25.20;8.40;;;;;;;3.77;81.18;100394.47;4993656;28;20026;-56
2022/01/05 09:49:11;;;;;;;19.25;7.68;;;;;;;3.68;82.31;100386.00;4993552;28;20033;-56
2022/01/05 09:51:41;;;;;;;20.13;8.35;;;;;;;3.66;81.55;100378.03;4993442;28;20026;-56
2022/01/05 09:54:07;;;;;;;19.38;8.13;;;;;;;3.64;81.80;100398.56;4993326;28;20150;-56
2022/01/05 09:56:34;;;;;;;22.02;8.20;;;;;;;3.57;82.19;100391.44;4993604;28;20023;-57
2022/01/05 09:59:04;;;;;;;21.55;9.15;;;;;;;3.62;82.98;100398.84;4993633;28;20374;-56
2022/01/05 10:01:34;;;;;;;23.38;8.43;;;;;;;3.63;82.65;100403.22;4993275;28;20529;-58
2022/01/05 10:04:00;;;;;;;18.85;8.23;;;;;;;3.65;82.64;100408.41;4993248;28;20050;-56
2022/01/05 10:06:26;;;;;;;23.45;8.73;;;;;;;3.67;82.26;100417.97;4993320;28;20105;-56
2022/01/05 10:08:52;;;;;;;22.17;8.45;;;;;;;3.70;82.22;100411.16;4993561;28;20030;-56
2022/01/05 10:11:20;;;;;;;23.50;9.05;;;;;;;3.71;82.51;100413.63;4993088;28;20050;-55
2022/01/05 10:13:45;;;;;;;18.48;8.50;;;;;;;3.81;82.31;100415.53;4993508;28;20113;-57
2022/01/05 10:16:10;;;;;;;18.35;7.88;;;;;;;3.88;81.92;100418.03;4993214;28;20128;-55
2022/01/05 10:18:44;;;;;;;18.63;8.30;;;;;;;3.95;81.42;100424.06;4993486;28;20165;-57
2022/01/05 10:21:12;;;;;;;22.23;8.13;;;;;;;4.07;80.92;100423.78;4993573;28;20034;-56
2022/01/05 10:23:45;;;;;;;21.38;8.15;;;;;;;4.05;81.46;100417.78;4993703;28;20026;-57
2022/01/05 10:26:31;;;;;;;18.65;8.27;;;;;;;4.16;81.42;100430.34;4993346;28;20027;-56
2022/01/05 10:29:00;;;;;;;22.52;7.70;;;;;;;4.19;80.91;100424.34;4993070;28;20070;-57
2022/01/05 10:31:32;;;;;;;23.38;8.38;;;;;;;4.16;80.59;100429.53;4993067;28;20026;-56
2022/01/05 10:34:12;;;;;;;22.63;9.18;;;;;;;4.18;81.11;100435.56;4993280;28;20524;-58
2022/01/05 10:37:05;;;;;;;22.02;8.63;;;;;;;4.19;80.75;100432.56;4993616;28;20026;-57
2022/01/05 10:39:42;;;;;;;24.50;8.65;;;;;;;4.15;80.20;100439.69;4990642;28;20038;-58
2022/01/05 10:42:13;;;;;;;18.02;8.10;;;;;;;4.21;80.36;100437.75;4993263;28;20060;-58
2022/01/05 10:44:41;;;;;;;19.88;8.02;;;;;;;4.21;80.27;100430.38;4993551;28;20026;-58
2022/01/05 10:47:07;;;;;;;21.13;8.20;;;;;;;4.30;80.25;100447.06;4992560;28;20022;-56
2022/01/05 10:49:38;;;;;;;21.40;8.20;;;;;;;4.38;79.62;100445.69;4993352;28;20035;-58
2022/01/05 10:52:50;;;;;;;22.23;8.23;;;;;;;4.47;80.18;100465.16;4993101;28;20038;-56
2022/01/05 10:55:18;;;;;;;22.75;8.40;;;;;;;4.45;79.87;100454.44;4934573;29;20071;-59
2022/01/05 10:58:03;;;;;;;20.40;8.52;;;;;;;4.45;79.86;100459.94;4936604;29;20167;-58
2022/01/05 11:00:43;;;;;;;25.00;8.88;;;;;;;4.47;80.12;100463.22;4976246;28;20157;-58
2022/01/05 11:03:51;;;;;;;23.75;8.80;;;;;;;4.58;78.92;100458.53;4996299;28;20033;-57
2022/01/05 11:06:17;;;;;;;21.88;8.07;;;;;;;4.59;78.42;100467.59;4994141;28;20066;-58
2022/01/05 11:09:00;;;;;;;18.40;7.60;;;;;;;4.59;79.10;100482.13;4996702;28;20101;-57
2022/01/05 11:11:39;;;;;;;22.65;8.23;;;;;;;4.60;79.59;100472.81;4996489;28;20049;-56
2022/01/05 11:14:12;;;;;;;18.95;7.60;;;;;;;4.48;79.68;100456.66;4996257;28;20059;-58
2022/01/05 11:16:40;;;;;;;;;;;;;;;4.68;79.29;100471.44;4996813;28;20396;-58
2022/01/05 11:19:13;;;;;;;20.27;7.75;;;;;;;4.69;78.52;100497.75;4996127;28;19913;-56
2022/01/05 11:21:40;;;;;;;21.25;8.35;;;;;;;4.66;78.82;100477.19;4995919;28;20026;-58
2022/01/05 11:24:06;;;;;;;22.33;8.23;;;;;;;4.74;79.14;100477.72;4996277;28;20466;-57
2022/01/05 11:26:35;;;;;;;24.63;8.77;;;;;;;4.72;79.34;100486.25;5010764;28;20600;-57
2022/01/05 11:29:03;;;;;;;18.95;7.80;;;;;;;4.79;79.08;100492.25;5015822;28;20030;-57